San Diego, California
Current Conditions -  °F | °C
As of 1:51 AM on Saturday 25 Oct 2014 (Local Time) from KSAN Reporting Station
Scattered Clouds Scattered Clouds  
Wind Chill: 69°   Ceiling: Unl
Heat Index: 69°   Visibility: 10mi
Dew Point: 63°   Wind: 5mph
Humidity: 81%   Direction: 360°N
Pressure: 30.02"   Gusts: NA
Location:  32.72°N, 117.16°W
Report Text: KSAN 250851Z 36004KT 10SM SCT008 SCT090 21/17 A3002 RMK AO2 SLP166 T02060172 51008 $
Loading
Personal Weather Stations






























Interactive Weather Map New forecast layout! Learn more

10-Day Weather Forecast

Advertisements
Track Severe Weather on mobile